sensor_id;sensor_type;location;lat;lon;timestamp;P1;durP1;ratioP1;P2;durP2;ratioP2
18983;SDS011;9626;52.552;13.436;2023-04-16T00:00:52;18.37;;;16.27;;
18983;SDS011;9626;52.552;13.436;2023-04-16T00:03:18;19.40;;;17.00;;
18983;SDS011;9626;52.552;13.436;2023-04-16T00:05:44;18.80;;;16.77;;
18983;SDS011;9626;52.552;13.436;2023-04-16T00:08:12;21.23;;;16.93;;
18983;SDS011;9626;52.552;13.436;2023-04-16T00:10:38;17.27;;;15.07;;
18983;SDS011;9626;52.552;13.436;2023-04-16T00:13:04;17.13;;;15.37;;
18983;SDS011;9626;52.552;13.436;2023-04-16T00:15:30;18.10;;;15.77;;
18983;SDS011;9626;52.552;13.436;2023-04-16T00:17:56;18.03;;;16.23;;
18983;SDS011;9626;52.552;13.436;2023-04-16T00:20:22;18.17;;;16.03;;
18983;SDS011;9626;52.552;13.436;2023-04-16T00:22:48;17.67;;;15.80;;
18983;SDS011;9626;52.552;13.436;2023-04-16T00:25:14;17.20;;;15.47;;
18983;SDS011;9626;52.552;13.436;2023-04-16T00:27:40;19.40;;;16.57;;
18983;SDS011;9626;52.552;13.436;2023-04-16T00:30:06;19.10;;;16.47;;
18983;SDS011;9626;52.552;13.436;2023-04-16T00:32:32;18.63;;;16.63;;
18983;SDS011;9626;52.552;13.436;2023-04-16T00:34:58;18.83;;;16.83;;
18983;SDS011;9626;52.552;13.436;2023-04-16T00:37:24;18.70;;;16.53;;
18983;SDS011;9626;52.552;13.436;2023-04-16T00:39:50;18.90;;;16.90;;
18983;SDS011;9626;52.552;13.436;2023-04-16T00:42:16;18.23;;;16.33;;
18983;SDS011;9626;52.552;13.436;2023-04-16T00:44:42;19.47;;;17.43;;
18983;SDS011;9626;52.552;13.436;2023-04-16T00:47:08;18.40;;;16.40;;
18983;SDS011;9626;52.552;13.436;2023-04-16T00:49:35;18.80;;;16.90;;
18983;SDS011;9626;52.552;13.436;2023-04-16T00:52:01;18.17;;;16.20;;
18983;SDS011;9626;52.552;13.436;2023-04-16T00:54:27;19.23;;;15.77;;
18983;SDS011;9626;52.552;13.436;2023-04-16T00:56:55;20.30;;;16.80;;
18983;SDS011;9626;52.552;13.436;2023-04-16T00:59:22;19.97;;;17.87;;
18983;SDS011;9626;52.552;13.436;2023-04-16T01:01:48;19.03;;;17.07;;
18983;SDS011;9626;52.552;13.436;2023-04-16T01:04:14;17.83;;;15.93;;
18983;SDS011;9626;52.552;13.436;2023-04-16T01:06:40;19.73;;;17.20;;
18983;SDS011;9626;52.552;13.436;2023-04-16T01:09:06;20.33;;;16.77;;
18983;SDS011;9626;52.552;13.436;2023-04-16T01:11:35;17.67;;;15.87;;
18983;SDS011;9626;52.552;13.436;2023-04-16T01:14:02;18.63;;;16.63;;
18983;SDS011;9626;52.552;13.436;2023-04-16T01:16:28;18.13;;;15.73;;
18983;SDS011;9626;52.552;13.436;2023-04-16T01:18:55;20.30;;;17.03;;
18983;SDS011;9626;52.552;13.436;2023-04-16T01:21:21;20.50;;;16.07;;
18983;SDS011;9626;52.552;13.436;2023-04-16T01:23:47;17.73;;;15.87;;
18983;SDS011;9626;52.552;13.436;2023-04-16T01:26:13;18.97;;;15.77;;
18983;SDS011;9626;52.552;13.436;2023-04-16T01:28:39;18.00;;;15.73;;
18983;SDS011;9626;52.552;13.436;2023-04-16T01:31:05;19.97;;;16.90;;
18983;SDS011;9626;52.552;13.436;2023-04-16T01:33:31;18.00;;;16.20;;
18983;SDS011;9626;52.552;13.436;2023-04-16T01:35:57;17.60;;;15.70;;
18983;SDS011;9626;52.552;13.436;2023-04-16T01:38:24;17.27;;;15.47;;
18983;SDS011;9626;52.552;13.436;2023-04-16T01:40:54;17.53;;;15.73;;
18983;SDS011;9626;52.552;13.436;2023-04-16T01:43:21;19.83;;;16.53;;
18983;SDS011;9626;52.552;13.436;2023-04-16T01:45:47;18.43;;;16.43;;
18983;SDS011;9626;52.552;13.436;2023-04-16T01:48:13;17.20;;;15.40;;
18983;SDS011;9626;52.552;13.436;2023-04-16T01:50:39;16.43;;;14.80;;
18983;SDS011;9626;52.552;13.436;2023-04-16T01:53:06;17.50;;;15.70;;
18983;SDS011;9626;52.552;13.436;2023-04-16T01:55:32;17.20;;;15.13;;
18983;SDS011;9626;52.552;13.436;2023-04-16T01:57:59;17.70;;;15.93;;
18983;SDS011;9626;52.552;13.436;2023-04-16T02:00:25;17.93;;;15.47;;
18983;SDS011;9626;52.552;13.436;2023-04-16T02:02:51;19.17;;;16.30;;
18983;SDS011;9626;52.552;13.436;2023-04-16T02:05:17;17.40;;;14.97;;
18983;SDS011;9626;52.552;13.436;2023-04-16T02:07:43;17.53;;;15.43;;
18983;SDS011;9626;52.552;13.436;2023-04-16T02:10:09;17.83;;;15.17;;
18983;SDS011;9626;52.552;13.436;2023-04-16T02:12:35;17.87;;;15.97;;
18983;SDS011;9626;52.552;13.436;2023-04-16T02:15:01;16.40;;;14.73;;
18983;SDS011;9626;52.552;13.436;2023-04-16T02:17:27;16.93;;;15.13;;
18983;SDS011;9626;52.552;13.436;2023-04-16T02:19:54;16.67;;;14.87;;
18983;SDS011;9626;52.552;13.436;2023-04-16T02:22:20;19.43;;;15.50;;
18983;SDS011;9626;52.552;13.436;2023-04-16T02:24:46;17.13;;;15.00;;
18983;SDS011;9626;52.552;13.436;2023-04-16T02:27:12;17.03;;;15.23;;
18983;SDS011;9626;52.552;13.436;2023-04-16T02:29:38;19.53;;;15.47;;
18983;SDS011;9626;52.552;13.436;2023-04-16T02:32:05;19.13;;;15.83;;
18983;SDS011;9626;52.552;13.436;2023-04-16T02:34:31;18.70;;;16.17;;
18983;SDS011;9626;52.552;13.436;2023-04-16T02:36:59;16.63;;;14.93;;
18983;SDS011;9626;52.552;13.436;2023-04-16T02:39:25;19.43;;;15.77;;
18983;SDS011;9626;52.552;13.436;2023-04-16T02:41:51;20.40;;;17.87;;
18983;SDS011;9626;52.552;13.436;2023-04-16T02:44:17;19.80;;;17.67;;
18983;SDS011;9626;52.552;13.436;2023-04-16T02:46:43;19.30;;;17.17;;
18983;SDS011;9626;52.552;13.436;2023-04-16T02:49:13;19.50;;;17.47;;
18983;SDS011;9626;52.552;13.436;2023-04-16T02:51:39;20.73;;;17.40;;
18983;SDS011;9626;52.552;13.436;2023-04-16T02:54:05;22.07;;;17.93;;
18983;SDS011;9626;52.552;13.436;2023-04-16T02:56:31;23.13;;;18.67;;
18983;SDS011;9626;52.552;13.436;2023-04-16T02:58:57;20.90;;;18.57;;
18983;SDS011;9626;52.552;13.436;2023-04-16T03:01:23;21.60;;;18.27;;
18983;SDS011;9626;52.552;13.436;2023-04-16T03:03:49;21.30;;;18.77;;
18983;SDS011;9626;52.552;13.436;2023-04-16T03:06:15;22.43;;;18.60;;
18983;SDS011;9626;52.552;13.436;2023-04-16T03:08:41;21.70;;;18.60;;
18983;SDS011;9626;52.552;13.436;2023-04-16T03:11:07;22.30;;;18.27;;
18983;SDS011;9626;52.552;13.436;2023-04-16T03:13:33;23.80;;;18.53;;
18983;SDS011;9626;52.552;13.436;2023-04-16T03:15:59;22.17;;;18.43;;
18983;SDS011;9626;52.552;13.436;2023-04-16T03:18:25;21.60;;;18.73;;
18983;SDS011;9626;52.552;13.436;2023-04-16T03:20:51;22.30;;;18.47;;
18983;SDS011;9626;52.552;13.436;2023-04-16T03:23:18;23.33;;;18.50;;
18983;SDS011;9626;52.552;13.436;2023-04-16T03:25:45;22.00;;;18.33;;
18983;SDS011;9626;52.552;13.436;2023-04-16T03:28:12;25.70;;;19.37;;
18983;SDS011;9626;52.552;13.436;2023-04-16T03:30:39;21.10;;;18.13;;
18983;SDS011;9626;52.552;13.436;2023-04-16T03:33:07;23.23;;;17.90;;
18983;SDS011;9626;52.552;13.436;2023-04-16T03:35:33;20.73;;;16.97;;
18983;SDS011;9626;52.552;13.436;2023-04-16T03:38:00;20.97;;;16.70;;
18983;SDS011;9626;52.552;13.436;2023-04-16T03:40:26;20.50;;;16.93;;
18983;SDS011;9626;52.552;13.436;2023-04-16T03:42:52;20.97;;;16.90;;
18983;SDS011;9626;52.552;13.436;2023-04-16T03:45:18;19.50;;;15.83;;
18983;SDS011;9626;52.552;13.436;2023-04-16T03:47:44;21.83;;;16.97;;
18983;SDS011;9626;52.552;13.436;2023-04-16T03:50:13;19.20;;;16.00;;
18983;SDS011;9626;52.552;13.436;2023-04-16T03:52:39;19.03;;;16.43;;
18983;SDS011;9626;52.552;13.436;2023-04-16T03:55:05;19.87;;;16.30;;
18983;SDS011;9626;52.552;13.436;2023-04-16T03:57:31;23.37;;;17.70;;
18983;SDS011;9626;52.552;13.436;2023-04-16T03:59:57;20.17;;;16.63;;
18983;SDS011;9626;52.552;13.436;2023-04-16T04:02:25;18.63;;;15.67;;
18983;SDS011;9626;52.552;13.436;2023-04-16T04:04:52;19.33;;;16.43;;
18983;SDS011;9626;52.552;13.436;2023-04-16T04:07:18;22.17;;;18.37;;
18983;SDS011;9626;52.552;13.436;2023-04-16T04:09:44;24.77;;;19.03;;
18983;SDS011;9626;52.552;13.436;2023-04-16T04:12:10;23.07;;;18.23;;
18983;SDS011;9626;52.552;13.436;2023-04-16T04:14:36;21.33;;;17.67;;
18983;SDS011;9626;52.552;13.436;2023-04-16T04:17:04;24.00;;;18.70;;
18983;SDS011;9626;52.552;13.436;2023-04-16T04:19:31;26.20;;;17.87;;
18983;SDS011;9626;52.552;13.436;2023-04-16T04:21:57;23.67;;;18.53;;
18983;SDS011;9626;52.552;13.436;2023-04-16T04:24:23;22.60;;;18.10;;
18983;SDS011;9626;52.552;13.436;2023-04-16T04:26:49;24.50;;;18.73;;
18983;SDS011;9626;52.552;13.436;2023-04-16T04:29:15;23.37;;;18.77;;
18983;SDS011;9626;52.552;13.436;2023-04-16T04:31:41;23.30;;;18.63;;
18983;SDS011;9626;52.552;13.436;2023-04-16T04:34:07;23.80;;;18.63;;
18983;SDS011;9626;52.552;13.436;2023-04-16T04:36:33;23.70;;;19.10;;
18983;SDS011;9626;52.552;13.436;2023-04-16T04:38:59;22.30;;;19.60;;
18983;SDS011;9626;52.552;13.436;2023-04-16T04:41:25;25.27;;;19.47;;
18983;SDS011;9626;52.552;13.436;2023-04-16T04:43:51;25.53;;;19.63;;
18983;SDS011;9626;52.552;13.436;2023-04-16T04:46:17;25.40;;;19.83;;
18983;SDS011;9626;52.552;13.436;2023-04-16T04:48:43;25.43;;;19.83;;
18983;SDS011;9626;52.552;13.436;2023-04-16T04:51:09;27.47;;;19.53;;
18983;SDS011;9626;52.552;13.436;2023-04-16T04:53:35;27.37;;;19.83;;
18983;SDS011;9626;52.552;13.436;2023-04-16T04:56:01;25.90;;;19.77;;
18983;SDS011;9626;52.552;13.436;2023-04-16T04:58:27;28.20;;;19.63;;
18983;SDS011;9626;52.552;13.436;2023-04-16T05:00:53;27.67;;;19.83;;
18983;SDS011;9626;52.552;13.436;2023-04-16T05:03:20;28.30;;;20.93;;
18983;SDS011;9626;52.552;13.436;2023-04-16T05:05:46;25.67;;;19.53;;
18983;SDS011;9626;52.552;13.436;2023-04-16T05:08:14;25.27;;;19.53;;
18983;SDS011;9626;52.552;13.436;2023-04-16T05:10:40;26.40;;;19.13;;
18983;SDS011;9626;52.552;13.436;2023-04-16T05:13:06;31.03;;;20.40;;
18983;SDS011;9626;52.552;13.436;2023-04-16T05:15:32;26.70;;;21.07;;
18983;SDS011;9626;52.552;13.436;2023-04-16T05:18:00;28.23;;;19.93;;
18983;SDS011;9626;52.552;13.436;2023-04-16T05:20:28;29.20;;;20.30;;
18983;SDS011;9626;52.552;13.436;2023-04-16T05:22:55;29.77;;;18.97;;
18983;SDS011;9626;52.552;13.436;2023-04-16T05:25:21;26.30;;;20.10;;
18983;SDS011;9626;52.552;13.436;2023-04-16T05:27:47;27.20;;;19.93;;
18983;SDS011;9626;52.552;13.436;2023-04-16T05:30:13;24.60;;;18.50;;
18983;SDS011;9626;52.552;13.436;2023-04-16T05:32:39;25.57;;;18.83;;
18983;SDS011;9626;52.552;13.436;2023-04-16T05:35:05;24.90;;;18.53;;
18983;SDS011;9626;52.552;13.436;2023-04-16T05:37:32;24.67;;;17.70;;
18983;SDS011;9626;52.552;13.436;2023-04-16T05:39:58;25.40;;;18.67;;
18983;SDS011;9626;52.552;13.436;2023-04-16T05:42:24;24.40;;;18.20;;
18983;SDS011;9626;52.552;13.436;2023-04-16T05:44:50;23.17;;;18.10;;
18983;SDS011;9626;52.552;13.436;2023-04-16T05:47:16;23.17;;;17.50;;
18983;SDS011;9626;52.552;13.436;2023-04-16T05:49:42;22.57;;;16.63;;
18983;SDS011;9626;52.552;13.436;2023-04-16T05:52:08;23.50;;;18.27;;
18983;SDS011;9626;52.552;13.436;2023-04-16T05:54:35;20.67;;;16.60;;
18983;SDS011;9626;52.552;13.436;2023-04-16T05:57:00;21.57;;;17.70;;
18983;SDS011;9626;52.552;13.436;2023-04-16T05:59:26;21.07;;;17.70;;
18983;SDS011;9626;52.552;13.436;2023-04-16T06:01:53;25.10;;;18.73;;
18983;SDS011;9626;52.552;13.436;2023-04-16T06:04:19;22.97;;;17.43;;
18983;SDS011;9626;52.552;13.436;2023-04-16T06:06:46;19.37;;;16.40;;
18983;SDS011;9626;52.552;13.436;2023-04-16T06:09:12;20.77;;;16.67;;
18983;SDS011;9626;52.552;13.436;2023-04-16T06:11:38;22.10;;;17.70;;
18983;SDS011;9626;52.552;13.436;2023-04-16T06:14:04;20.13;;;16.57;;
18983;SDS011;9626;52.552;13.436;2023-04-16T06:16:30;21.17;;;17.33;;
18983;SDS011;9626;52.552;13.436;2023-04-16T06:18:56;20.57;;;16.00;;
18983;SDS011;9626;52.552;13.436;2023-04-16T06:21:22;19.97;;;16.17;;
18983;SDS011;9626;52.552;13.436;2023-04-16T06:23:48;23.20;;;16.43;;
18983;SDS011;9626;52.552;13.436;2023-04-16T06:26:14;21.07;;;16.97;;
18983;SDS011;9626;52.552;13.436;2023-04-16T06:28:40;24.00;;;17.20;;
18983;SDS011;9626;52.552;13.436;2023-04-16T06:31:06;22.77;;;17.33;;
18983;SDS011;9626;52.552;13.436;2023-04-16T06:33:32;22.37;;;18.17;;
18983;SDS011;9626;52.552;13.436;2023-04-16T06:35:58;21.73;;;17.53;;
18983;SDS011;9626;52.552;13.436;2023-04-16T06:38:24;22.33;;;17.03;;
18983;SDS011;9626;52.552;13.436;2023-04-16T06:40:50;23.43;;;16.97;;
18983;SDS011;9626;52.552;13.436;2023-04-16T06:43:16;23.10;;;17.43;;
18983;SDS011;9626;52.552;13.436;2023-04-16T06:45:43;22.40;;;17.87;;
18983;SDS011;9626;52.552;13.436;2023-04-16T06:48:09;22.67;;;17.93;;
18983;SDS011;9626;52.552;13.436;2023-04-16T06:50:35;23.07;;;17.93;;
18983;SDS011;9626;52.552;13.436;2023-04-16T06:53:02;21.17;;;16.93;;
18983;SDS011;9626;52.552;13.436;2023-04-16T06:55:28;20.63;;;16.97;;
18983;SDS011;9626;52.552;13.436;2023-04-16T06:57:54;23.47;;;18.60;;
18983;SDS011;9626;52.552;13.436;2023-04-16T07:00:20;23.40;;;17.40;;
18983;SDS011;9626;52.552;13.436;2023-04-16T07:02:46;23.53;;;18.17;;
18983;SDS011;9626;52.552;13.436;2023-04-16T07:05:12;21.70;;;17.10;;
18983;SDS011;9626;52.552;13.436;2023-04-16T07:07:38;21.80;;;16.87;;
18983;SDS011;9626;52.552;13.436;2023-04-16T07:10:04;20.43;;;16.80;;
18983;SDS011;9626;52.552;13.436;2023-04-16T07:12:31;21.10;;;16.87;;
18983;SDS011;9626;52.552;13.436;2023-04-16T07:14:57;23.47;;;18.20;;
18983;SDS011;9626;52.552;13.436;2023-04-16T07:17:23;21.10;;;17.20;;
18983;SDS011;9626;52.552;13.436;2023-04-16T07:19:50;24.47;;;18.07;;
18983;SDS011;9626;52.552;13.436;2023-04-16T07:22:16;20.70;;;17.53;;
18983;SDS011;9626;52.552;13.436;2023-04-16T07:24:42;23.33;;;17.83;;
18983;SDS011;9626;52.552;13.436;2023-04-16T07:27:11;22.07;;;17.03;;
18983;SDS011;9626;52.552;13.436;2023-04-16T07:29:37;21.33;;;17.23;;
18983;SDS011;9626;52.552;13.436;2023-04-16T07:32:03;23.83;;;17.77;;
18983;SDS011;9626;52.552;13.436;2023-04-16T07:34:29;20.67;;;16.93;;
18983;SDS011;9626;52.552;13.436;2023-04-16T07:36:56;20.50;;;16.80;;
18983;SDS011;9626;52.552;13.436;2023-04-16T07:39:22;21.07;;;17.77;;
18983;SDS011;9626;52.552;13.436;2023-04-16T07:41:47;21.67;;;17.87;;
18983;SDS011;9626;52.552;13.436;2023-04-16T07:44:14;19.10;;;15.77;;
18983;SDS011;9626;52.552;13.436;2023-04-16T07:46:40;21.77;;;16.67;;
18983;SDS011;9626;52.552;13.436;2023-04-16T07:49:06;19.87;;;16.07;;
18983;SDS011;9626;52.552;13.436;2023-04-16T07:51:32;23.60;;;16.63;;
18983;SDS011;9626;52.552;13.436;2023-04-16T07:53:58;22.37;;;17.50;;
18983;SDS011;9626;52.552;13.436;2023-04-16T07:56:24;23.47;;;17.67;;
18983;SDS011;9626;52.552;13.436;2023-04-16T07:58:50;22.03;;;16.20;;
18983;SDS011;9626;52.552;13.436;2023-04-16T08:01:16;21.87;;;16.33;;
18983;SDS011;9626;52.552;13.436;2023-04-16T08:03:42;22.47;;;16.30;;
18983;SDS011;9626;52.552;13.436;2023-04-16T08:06:08;22.47;;;16.20;;
18983;SDS011;9626;52.552;13.436;2023-04-16T08:08:34;24.20;;;16.63;;
18983;SDS011;9626;52.552;13.436;2023-04-16T08:11:00;22.90;;;17.00;;
18983;SDS011;9626;52.552;13.436;2023-04-16T08:13:26;21.47;;;16.03;;
18983;SDS011;9626;52.552;13.436;2023-04-16T08:15:52;22.03;;;15.53;;
18983;SDS011;9626;52.552;13.436;2023-04-16T08:18:18;21.67;;;16.97;;
18983;SDS011;9626;52.552;13.436;2023-04-16T08:20:44;23.50;;;15.93;;
18983;SDS011;9626;52.552;13.436;2023-04-16T08:23:10;27.13;;;17.43;;
18983;SDS011;9626;52.552;13.436;2023-04-16T08:25:36;23.33;;;16.80;;
18983;SDS011;9626;52.552;13.436;2023-04-16T08:28:02;21.97;;;15.57;;
18983;SDS011;9626;52.552;13.436;2023-04-16T08:30:29;22.97;;;16.90;;
18983;SDS011;9626;52.552;13.436;2023-04-16T08:32:55;20.70;;;16.33;;
18983;SDS011;9626;52.552;13.436;2023-04-16T08:35:21;21.93;;;16.20;;
18983;SDS011;9626;52.552;13.436;2023-04-16T08:37:47;23.63;;;18.53;;
18983;SDS011;9626;52.552;13.436;2023-04-16T08:40:14;23.93;;;17.10;;
18983;SDS011;9626;52.552;13.436;2023-04-16T08:45:14;26.30;;;19.90;;
18983;SDS011;9626;52.552;13.436;2023-04-16T08:47:45;24.63;;;18.50;;
18983;SDS011;9626;52.552;13.436;2023-04-16T08:50:24;24.50;;;17.93;;
18983;SDS011;9626;52.552;13.436;2023-04-16T08:52:52;22.43;;;17.47;;
18983;SDS011;9626;52.552;13.436;2023-04-16T08:55:39;22.07;;;17.47;;
18983;SDS011;9626;52.552;13.436;2023-04-16T08:58:10;26.77;;;18.13;;
18983;SDS011;9626;52.552;13.436;2023-04-16T09:00:44;21.67;;;17.83;;
18983;SDS011;9626;52.552;13.436;2023-04-16T09:03:11;22.37;;;18.53;;
18983;SDS011;9626;52.552;13.436;2023-04-16T09:05:37;24.57;;;19.03;;
18983;SDS011;9626;52.552;13.436;2023-04-16T09:08:04;24.53;;;19.13;;
18983;SDS011;9626;52.552;13.436;2023-04-16T09:10:31;23.67;;;17.60;;
18983;SDS011;9626;52.552;13.436;2023-04-16T09:12:58;21.87;;;17.23;;
18983;SDS011;9626;52.552;13.436;2023-04-16T09:15:24;21.33;;;16.80;;
18983;SDS011;9626;52.552;13.436;2023-04-16T09:17:51;21.27;;;17.20;;
18983;SDS011;9626;52.552;13.436;2023-04-16T09:20:17;22.87;;;16.97;;
18983;SDS011;9626;52.552;13.436;2023-04-16T09:22:44;21.57;;;17.50;;
18983;SDS011;9626;52.552;13.436;2023-04-16T09:25:11;18.90;;;16.13;;
18983;SDS011;9626;52.552;13.436;2023-04-16T09:27:37;21.03;;;16.50;;
18983;SDS011;9626;52.552;13.436;2023-04-16T09:30:23;19.83;;;16.33;;
18983;SDS011;9626;52.552;13.436;2023-04-16T09:32:53;22.20;;;16.17;;
18983;SDS011;9626;52.552;13.436;2023-04-16T09:35:44;18.63;;;15.70;;
18983;SDS011;9626;52.552;13.436;2023-04-16T09:38:12;19.43;;;15.73;;
18983;SDS011;9626;52.552;13.436;2023-04-16T09:40:38;20.17;;;16.00;;
18983;SDS011;9626;52.552;13.436;2023-04-16T09:43:11;18.03;;;15.27;;
18983;SDS011;9626;52.552;13.436;2023-04-16T09:45:51;20.17;;;16.10;;
18983;SDS011;9626;52.552;13.436;2023-04-16T09:48:28;18.93;;;15.60;;
18983;SDS011;9626;52.552;13.436;2023-04-16T09:50:58;19.70;;;16.17;;
18983;SDS011;9626;52.552;13.436;2023-04-16T09:53:25;20.03;;;16.60;;
18983;SDS011;9626;52.552;13.436;2023-04-16T09:55:56;19.43;;;16.87;;
18983;SDS011;9626;52.552;13.436;2023-04-16T09:58:26;19.90;;;16.50;;
18983;SDS011;9626;52.552;13.436;2023-04-16T10:01:06;18.43;;;15.90;;
18983;SDS011;9626;52.552;13.436;2023-04-16T10:03:35;20.87;;;17.47;;
18983;SDS011;9626;52.552;13.436;2023-04-16T10:08:49;19.53;;;17.43;;
18983;SDS011;9626;52.552;13.436;2023-04-16T10:11:16;23.10;;;19.33;;
18983;SDS011;9626;52.552;13.436;2023-04-16T10:13:44;23.37;;;20.67;;
18983;SDS011;9626;52.552;13.436;2023-04-16T10:16:11;23.93;;;20.27;;
18983;SDS011;9626;52.552;13.436;2023-04-16T10:18:38;26.27;;;21.03;;
18983;SDS011;9626;52.552;13.436;2023-04-16T10:21:06;22.43;;;19.03;;
18983;SDS011;9626;52.552;13.436;2023-04-16T10:23:32;23.97;;;20.30;;
18983;SDS011;9626;52.552;13.436;2023-04-16T10:25:59;25.30;;;21.23;;
18983;SDS011;9626;52.552;13.436;2023-04-16T10:28:27;23.60;;;20.47;;
18983;SDS011;9626;52.552;13.436;2023-04-16T10:30:55;22.93;;;20.23;;
18983;SDS011;9626;52.552;13.436;2023-04-16T10:33:30;22.87;;;19.77;;
18983;SDS011;9626;52.552;13.436;2023-04-16T10:36:11;24.00;;;19.83;;
18983;SDS011;9626;52.552;13.436;2023-04-16T10:38:45;25.00;;;20.27;;
18983;SDS011;9626;52.552;13.436;2023-04-16T10:41:14;23.97;;;19.93;;
18983;SDS011;9626;52.552;13.436;2023-04-16T10:43:44;22.30;;;19.23;;
18983;SDS011;9626;52.552;13.436;2023-04-16T10:46:23;21.73;;;18.37;;
18983;SDS011;9626;52.552;13.436;2023-04-16T10:48:54;24.50;;;19.30;;
18983;SDS011;9626;52.552;13.436;2023-04-16T10:51:34;21.83;;;19.37;;
18983;SDS011;9626;52.552;13.436;2023-04-16T10:56:44;24.00;;;19.33;;
18983;SDS011;9626;52.552;13.436;2023-04-16T10:59:13;22.17;;;18.27;;
18983;SDS011;9626;52.552;13.436;2023-04-16T11:01:43;20.83;;;18.57;;
18983;SDS011;9626;52.552;13.436;2023-04-16T11:12:06;19.23;;;17.17;;
18983;SDS011;9626;52.552;13.436;2023-04-16T11:14:36;23.50;;;18.50;;
18983;SDS011;9626;52.552;13.436;2023-04-16T11:17:04;19.33;;;17.33;;
18983;SDS011;9626;52.552;13.436;2023-04-16T11:19:30;18.27;;;16.17;;
18983;SDS011;9626;52.552;13.436;2023-04-16T11:21:57;17.60;;;15.90;;
18983;SDS011;9626;52.552;13.436;2023-04-16T11:24:28;19.77;;;17.67;;
18983;SDS011;9626;52.552;13.436;2023-04-16T11:26:55;18.13;;;16.33;;
18983;SDS011;9626;52.552;13.436;2023-04-16T11:29:21;19.90;;;17.90;;
18983;SDS011;9626;52.552;13.436;2023-04-16T11:31:51;20.17;;;18.10;;
18983;SDS011;9626;52.552;13.436;2023-04-16T11:34:18;18.77;;;16.87;;
18983;SDS011;9626;52.552;13.436;2023-04-16T11:36:45;18.37;;;16.43;;
18983;SDS011;9626;52.552;13.436;2023-04-16T11:39:15;18.70;;;16.80;;
18983;SDS011;9626;52.552;13.436;2023-04-16T11:41:42;18.37;;;16.47;;
18983;SDS011;9626;52.552;13.436;2023-04-16T11:44:18;19.87;;;17.77;;
18983;SDS011;9626;52.552;13.436;2023-04-16T11:46:52;21.10;;;18.37;;
18983;SDS011;9626;52.552;13.436;2023-04-16T11:49:31;32.40;;;26.13;;
18983;SDS011;9626;52.552;13.436;2023-04-16T11:51:57;24.40;;;18.80;;
18983;SDS011;9626;52.552;13.436;2023-04-16T11:54:23;26.13;;;20.87;;
18983;SDS011;9626;52.552;13.436;2023-04-16T11:56:51;17.63;;;15.20;;
18983;SDS011;9626;52.552;13.436;2023-04-16T11:59:21;14.77;;;12.97;;
18983;SDS011;9626;52.552;13.436;2023-04-16T12:01:52;15.37;;;13.20;;
18983;SDS011;9626;52.552;13.436;2023-04-16T12:04:24;15.43;;;12.87;;
18983;SDS011;9626;52.552;13.436;2023-04-16T12:07:07;13.13;;;11.83;;
18983;SDS011;9626;52.552;13.436;2023-04-16T12:09:35;12.93;;;11.63;;
18983;SDS011;9626;52.552;13.436;2023-04-16T12:12:06;14.03;;;12.63;;
18983;SDS011;9626;52.552;13.436;2023-04-16T12:14:55;14.03;;;12.73;;
18983;SDS011;9626;52.552;13.436;2023-04-16T12:17:24;13.37;;;12.07;;
18983;SDS011;9626;52.552;13.436;2023-04-16T12:19:52;13.57;;;12.27;;
18983;SDS011;9626;52.552;13.436;2023-04-16T12:22:43;13.23;;;11.83;;
18983;SDS011;9626;52.552;13.436;2023-04-16T12:25:12;11.80;;;10.27;;
18983;SDS011;9626;52.552;13.436;2023-04-16T12:28:01;11.47;;;10.37;;
18983;SDS011;9626;52.552;13.436;2023-04-16T12:30:26;11.07;;;9.87;;
18983;SDS011;9626;52.552;13.436;2023-04-16T12:33:13;10.80;;;9.70;;
18983;SDS011;9626;52.552;13.436;2023-04-16T12:35:41;10.27;;;9.20;;
18983;SDS011;9626;52.552;13.436;2023-04-16T12:38:08;14.07;;;10.90;;
18983;SDS011;9626;52.552;13.436;2023-04-16T12:40:35;11.93;;;9.73;;
18983;SDS011;9626;52.552;13.436;2023-04-16T12:43:01;11.40;;;10.17;;
18983;SDS011;9626;52.552;13.436;2023-04-16T12:45:27;10.33;;;9.27;;
18983;SDS011;9626;52.552;13.436;2023-04-16T12:47:53;10.13;;;9.13;;
18983;SDS011;9626;52.552;13.436;2023-04-16T12:50:20;10.37;;;8.77;;
18983;SDS011;9626;52.552;13.436;2023-04-16T12:52:47;9.90;;;8.93;;
18983;SDS011;9626;52.552;13.436;2023-04-16T12:55:13;9.47;;;8.47;;
18983;SDS011;9626;52.552;13.436;2023-04-16T12:57:39;9.67;;;8.67;;
18983;SDS011;9626;52.552;13.436;2023-04-16T13:00:06;9.80;;;8.57;;
18983;SDS011;9626;52.552;13.436;2023-04-16T13:02:35;14.10;;;8.60;;
18983;SDS011;9626;52.552;13.436;2023-04-16T13:05:01;13.37;;;8.57;;
18983;SDS011;9626;52.552;13.436;2023-04-16T13:07:27;11.83;;;7.77;;
18983;SDS011;9626;52.552;13.436;2023-04-16T13:09:56;13.10;;;9.10;;
18983;SDS011;9626;52.552;13.436;2023-04-16T13:12:22;10.10;;;7.90;;
18983;SDS011;9626;52.552;13.436;2023-04-16T13:14:48;8.67;;;7.70;;
18983;SDS011;9626;52.552;13.436;2023-04-16T13:17:15;10.67;;;8.37;;
18983;SDS011;9626;52.552;13.436;2023-04-16T13:19:41;9.43;;;8.10;;
18983;SDS011;9626;52.552;13.436;2023-04-16T13:22:08;10.63;;;9.00;;
18983;SDS011;9626;52.552;13.436;2023-04-16T13:24:34;15.60;;;8.27;;
18983;SDS011;9626;52.552;13.436;2023-04-16T13:27:00;11.60;;;8.50;;
18983;SDS011;9626;52.552;13.436;2023-04-16T13:29:26;11.60;;;7.87;;
18983;SDS011;9626;52.552;13.436;2023-04-16T13:31:52;10.17;;;8.50;;
18983;SDS011;9626;52.552;13.436;2023-04-16T13:34:19;11.73;;;8.37;;
18983;SDS011;9626;52.552;13.436;2023-04-16T13:36:45;11.27;;;9.47;;
18983;SDS011;9626;52.552;13.436;2023-04-16T13:39:11;10.73;;;8.87;;
18983;SDS011;9626;52.552;13.436;2023-04-16T13:41:37;10.33;;;9.00;;
18983;SDS011;9626;52.552;13.436;2023-04-16T13:44:03;10.83;;;9.43;;
18983;SDS011;9626;52.552;13.436;2023-04-16T13:46:31;10.83;;;8.80;;
18983;SDS011;9626;52.552;13.436;2023-04-16T13:48:57;9.87;;;8.60;;
18983;SDS011;9626;52.552;13.436;2023-04-16T13:51:23;9.40;;;8.00;;
18983;SDS011;9626;52.552;13.436;2023-04-16T13:53:49;8.87;;;7.97;;
18983;SDS011;9626;52.552;13.436;2023-04-16T13:56:15;10.70;;;8.63;;
18983;SDS011;9626;52.552;13.436;2023-04-16T13:58:41;9.33;;;7.97;;
18983;SDS011;9626;52.552;13.436;2023-04-16T14:01:08;10.17;;;8.97;;
18983;SDS011;9626;52.552;13.436;2023-04-16T14:03:34;9.77;;;8.27;;
18983;SDS011;9626;52.552;13.436;2023-04-16T14:06:02;10.13;;;8.60;;
18983;SDS011;9626;52.552;13.436;2023-04-16T14:08:28;9.80;;;7.70;;
18983;SDS011;9626;52.552;13.436;2023-04-16T14:10:55;10.53;;;7.90;;
18983;SDS011;9626;52.552;13.436;2023-04-16T14:13:22;8.00;;;7.10;;
18983;SDS011;9626;52.552;13.436;2023-04-16T14:15:52;8.97;;;6.77;;
18983;SDS011;9626;52.552;13.436;2023-04-16T14:18:18;7.40;;;6.60;;
18983;SDS011;9626;52.552;13.436;2023-04-16T14:20:44;9.43;;;6.60;;
18983;SDS011;9626;52.552;13.436;2023-04-16T14:23:10;9.27;;;7.10;;
18983;SDS011;9626;52.552;13.436;2023-04-16T14:25:37;9.00;;;6.80;;
18983;SDS011;9626;52.552;13.436;2023-04-16T14:28:03;11.27;;;7.23;;
18983;SDS011;9626;52.552;13.436;2023-04-16T14:30:29;7.73;;;6.57;;
18983;SDS011;9626;52.552;13.436;2023-04-16T14:32:56;9.00;;;6.87;;
18983;SDS011;9626;52.552;13.436;2023-04-16T14:35:22;7.73;;;6.80;;
18983;SDS011;9626;52.552;13.436;2023-04-16T14:37:48;11.60;;;6.43;;
18983;SDS011;9626;52.552;13.436;2023-04-16T14:40:15;31.87;;;7.37;;